Chicago, Illinois
Traffic Map
Current Weather Conditions
Chicago, Illinois
Overcast Light Rain
Overcast
65°
Feels Like: 65°
Wind Chill: 65° Ceiling: 2300
Heat Index: 65° Visibility: 5mi
Dew Point: 58° Wind: 17mph
Humidity: 78% Direction: 30° (NNE)
Pressure: 30.17in Gusts: 28mph
Raw Report DataKMDW 291653Z 03015G24KT 5SM -RA BR BKN023 BKN033 OVC080 18/14 A3017 RMK AO2 PK WND 05027/1632 RAB36 SLP212 VIS NE 4 P0001 T01830144
Traffic Incident Summary
Active as of:
Severity:
Category:
InformationThere was an issue retrieving the traffic information for this location. Please try a different location or try again shortly.
Advertisements
Track Severe Weather on mobile